Dirección General De Aeronáutica Civil

Dirección Meteorológica de Chile - Servicios Climáticos

Informe General de Control de Calidad de la Estación

Listado de niveles de control de calidad para algunos parámetros
Estación Graneros, Mostazal (340032)
Fecha de Revisión de los datos :

Elementos

Registros Niveles de Control Total
Nivel 0 Nivel 1 Nivel 2 Nivel 3 Errores Porcentaje
01 Temperatura del Aire Seco 148.503 0 . 122 0.08 % 0 . 0 . 122 0.08 %
02 Temperatura de Rocío 127.580 0 . 0 . 0 . 0 . 0 0.00 %
03 Humedad Relativa del Aire 127.959 0 . 0 . 0 . 0 . 0 0.00 %
04 Temperatura Máxima PM 9.421 0 . 0 . 21 0.22 % 0 . 21 0.22 %
05 Temperatura Mínima AM 9.372 0 . 0 . 20 0.21 % 0 . 20 0.21 %
06 Viento a 10 m. de Altura 10.428 0 . 0 . 0 . 0 . 0 0.00 %
07 Agua Caida, Acumulada 6 Horas 21.932 0 . 0 . 0 . 0 . 0 0.00 %
08 Presión Atm. a Nivel de Estación (QFE) 127.492 0 . 0 . 0 . 0 . 0 0.00 %
09 Presión Atm. a Nivel Medio del Mar (QFF) 32.036 0 . 0 . 0 . 0 . 0 0.00 %
10 Presión Atm. Estándar OACI (QNH) 32.036 0 . 0 . 0 . 0 . 0 0.00 %

Totales

646.759 . 0.0000 % . 0.0189 % . 0.0063 % . 0.0000 % 163 0.0252 %

Detalle de Errores Recientes

Fecha del Dato Descripción Información Error Fecha Ingreso
1991-06-14 00:00:00 Temperatura 22.6 del 13-06-1991 18:00, Mayor que la Máxima 22.2 14-06-1991 00:00 22.6 -- 22.2 2023-12-29 03:18:00
1997-09-21 00:00:00 Temperatura 19.0 del 20-09-1997 18:00, Mayor que la Máxima 14.9 21-09-1997 00:00 19.0 -- 14.9 2023-12-29 03:27:00
1999-03-25 00:00:00 Temperatura 19.0 del 25-03-1999 00:00, Mayor que la Máxima 18.8 25-03-1999 00:00 19.0 -- 18.8 2023-12-29 03:29:00
1999-04-16 00:00:00 Temperatura 18.9 del 16-04-1999 00:00, Mayor que la Máxima 15.8 16-04-1999 00:00 18.9 -- 15.8 2023-12-29 03:29:00
1999-05-08 00:00:00 Temperatura 23.9 del 07-05-1999 18:00, Mayor que la Máxima 23.8 08-05-1999 00:00 23.9 -- 23.8 2023-12-29 03:29:00
1999-10-26 00:00:00 Temperatura 23.6 del 25-10-1999 18:00, Mayor que la Máxima 23.0 26-10-1999 00:00 23.6 -- 23.0 2023-12-29 03:30:00
1999-12-19 00:00:00 Temperatura 26.4 del 18-12-1999 18:00, Mayor que la Máxima 26.0 19-12-1999 00:00 26.4 -- 26.0 2023-12-29 03:30:00
2003-02-20 00:00:00 Temperatura 21.4 del 19-02-2003 18:00, Mayor que la Máxima 20.4 20-02-2003 00:00 21.4 -- 20.4 2023-12-29 03:33:00
2003-06-18 00:00:00 Temperatura 14.0 del 18-06-2003 00:00, Mayor que la Máxima 11.0 18-06-2003 00:00 14.0 -- 11.0 2023-12-29 03:34:00
2003-06-22 00:00:00 Temperatura 19.1 del 21-06-2003 18:00, Mayor que la Máxima 13.4 22-06-2003 00:00 19.1 -- 13.4 2023-12-29 03:34:00
2003-09-07 00:00:00 Temperatura 17.4 del 06-09-2003 18:00, Mayor que la Máxima 12.0 07-09-2003 00:00 17.4 -- 12.0 2023-12-29 03:34:00
2003-11-19 00:00:00 Temperatura 25.0 del 18-11-2003 18:00, Mayor que la Máxima 20.5 19-11-2003 00:00 25.0 -- 20.5 2023-12-29 03:34:00
2004-03-25 00:00:00 Temperatura 28.7 del 24-03-2004 18:00, Mayor que la Máxima 28.0 25-03-2004 00:00 28.7 -- 28.0 2023-12-29 03:34:00
2004-04-19 00:00:00 Temperatura 18.3 del 18-04-2004 18:00, Mayor que la Máxima 13.0 19-04-2004 00:00 18.3 -- 13.0 2023-12-29 03:34:00
2004-10-22 00:00:00 Temperatura 25.2 del 21-10-2004 18:00, Mayor que la Máxima 18.6 22-10-2004 00:00 25.2 -- 18.6 2023-12-29 03:35:00
2004-12-04 00:00:00 Temperatura 24.3 del 03-12-2004 18:00, Mayor que la Máxima 24.0 04-12-2004 00:00 24.3 -- 24.0 2023-12-29 03:35:00
2009-01-28 00:00:00 Temperatura 32.3 del 27-01-2009 20:00, Mayor que la Máxima 31.6 28-01-2009 00:00 32.3 -- 31.6 2023-12-31 01:01:00
2009-01-29 00:00:00 Temperatura 33.9 del 28-01-2009 20:00, Mayor que la Máxima 32.2 29-01-2009 00:00 33.9 -- 32.2 2023-12-31 01:01:00
2009-01-30 00:00:00 Temperatura 28.9 del 29-01-2009 17:00, Mayor que la Máxima 28.4 30-01-2009 00:00 28.9 -- 28.4 2023-12-31 01:01:00
2009-01-31 00:00:00 Temperatura 30.4 del 30-01-2009 19:00, Mayor que la Máxima 30.0 31-01-2009 00:00 30.4 -- 30.0 2023-12-31 01:01:00
2009-02-01 00:00:00 Temperatura 33.0 del 31-01-2009 19:00, Mayor que la Máxima 31.4 01-02-2009 00:00 33.0 -- 31.4 2023-12-31 01:01:00
1997-09-04 12:00:00 Temperatura 8.9 del 04-09-1997 12:00, Menor que la Mínima 11.0 04-09-1997 12:00 8.9 -- 11.0 2023-12-29 03:27:00
1999-05-15 12:00:00 Temperatura 7.5 del 15-05-1999 12:00, Menor que la Mínima 8.1 15-05-1999 12:00 7.5 -- 8.1 2023-12-29 03:29:00
1999-07-01 12:00:00 Temperatura 8.0 del 01-07-1999 12:00, Menor que la Mínima 8.2 01-07-1999 12:00 8.0 -- 8.2 2023-12-29 03:29:00
1999-07-14 12:00:00 Temperatura -3.0 del 14-07-1999 12:00, Menor que la Mínima -2.8 14-07-1999 12:00 -3.0 -- -2.8 2023-12-29 03:30:00
1999-07-15 12:00:00 Temperatura -3.0 del 15-07-1999 12:00, Menor que la Mínima -2.8 15-07-1999 12:00 -3.0 -- -2.8 2023-12-29 03:30:00
1999-07-31 12:00:00 Temperatura -0.1 del 31-07-1999 12:00, Menor que la Mínima 0.0 31-07-1999 12:00 -0.1 -- 0.0 2023-12-29 03:30:00
2003-02-14 12:00:00 Temperatura 13.3 del 14-02-2003 12:00, Menor que la Mínima 14.0 14-02-2003 12:00 13.3 -- 14.0 2023-12-29 03:33:00
2003-02-15 12:00:00 Temperatura 11.3 del 15-02-2003 12:00, Menor que la Mínima 12.0 15-02-2003 12:00 11.3 -- 12.0 2023-12-29 03:33:00
2003-05-02 12:00:00 Temperatura 3.2 del 02-05-2003 12:00, Menor que la Mínima 3.3 02-05-2003 12:00 3.2 -- 3.3 2023-12-29 03:34:00
2003-06-12 12:00:00 Temperatura 7.0 del 12-06-2003 12:00, Menor que la Mínima 7.3 12-06-2003 12:00 7.0 -- 7.3 2023-12-29 03:34:00
2003-06-26 12:00:00 Temperatura 3.0 del 26-06-2003 12:00, Menor que la Mínima 3.1 26-06-2003 12:00 3.0 -- 3.1 2023-12-29 03:34:00
2003-07-05 12:00:00 Temperatura 9.2 del 05-07-2003 12:00, Menor que la Mínima 10.3 05-07-2003 12:00 9.2 -- 10.3 2023-12-29 03:34:00
2003-09-17 12:00:00 Temperatura 8.1 del 17-09-2003 12:00, Menor que la Mínima 9.3 17-09-2003 12:00 8.1 -- 9.3 2023-12-29 03:34:00
2004-03-19 12:00:00 Temperatura 11.5 del 19-03-2004 12:00, Menor que la Mínima 12.0 19-03-2004 12:00 11.5 -- 12.0 2023-12-29 03:34:00
2004-05-29 12:00:00 Temperatura 1.4 del 29-05-2004 12:00, Menor que la Mínima 2.2 29-05-2004 12:00 1.4 -- 2.2 2023-12-29 03:34:00
2004-07-10 12:00:00 Temperatura 2.4 del 10-07-2004 12:00, Menor que la Mínima 3.0 10-07-2004 12:00 2.4 -- 3.0 2023-12-29 03:35:00
2004-07-29 12:00:00 Temperatura 1.1 del 29-07-2004 12:00, Menor que la Mínima 1.2 29-07-2004 12:00 1.1 -- 1.2 2023-12-29 03:35:00
2009-01-27 12:00:00 Temperatura 11.5 del 27-01-2009 10:00, Menor que la Mínima 12.2 27-01-2009 12:00 11.5 -- 12.2 2023-12-31 01:01:00
2009-01-28 12:00:00 Temperatura 11.6 del 28-01-2009 09:00, Menor que la Mínima 12.0 28-01-2009 12:00 11.6 -- 12.0 2023-12-31 01:01:00
2009-01-31 12:00:00 Temperatura 15.1 del 31-01-2009 09:00, Menor que la Mínima 15.4 31-01-2009 12:00 15.1 -- 15.4 2023-12-31 01:01:00
Total de Errores Recientes 41

Detalle de Errores Encontrados

Nivel Fecha del Dato Descripción Información Error Fecha Ingreso
1 2016-05-09 09:00:00 HR (Humedad Relativa) es igual a 100% y Ts <> Td 15.1 - 8.2 2023-11-18 13:30:00
1 2016-05-09 11:00:00 HR (Humedad Relativa) es igual a 100% y Ts <> Td 15.0 - 7.4 2023-11-18 13:30:00
1 2016-05-09 12:00:00 HR (Humedad Relativa) es igual a 100% y Ts <> Td 15.0 - 8.0 2023-11-18 13:30:00
1 2016-05-09 13:00:00 HR (Humedad Relativa) es igual a 100% y Ts <> Td 14.9 - 9.0 2023-11-18 13:30:00
1 2016-05-12 07:00:00 HR (Humedad Relativa) es igual a 100% y Ts <> Td 14.8 - 4.4 2023-11-18 13:30:00
1 2016-05-12 08:00:00 HR (Humedad Relativa) es igual a 100% y Ts <> Td 14.7 - 4.7 2023-11-18 13:30:00
1 2016-05-12 10:00:00 HR (Humedad Relativa) es igual a 100% y Ts <> Td 14.6 - 4.0 2023-11-18 13:30:00
1 2016-05-12 11:00:00 HR (Humedad Relativa) es igual a 100% y Ts <> Td 14.5 - 3.9 2023-11-18 13:30:00
1 2016-05-12 12:00:00 HR (Humedad Relativa) es igual a 100% y Ts <> Td 14.4 - 3.4 2023-11-18 13:30:00
1 2016-05-18 07:00:00 HR (Humedad Relativa) es igual a 100% y Ts <> Td 14.4 - 8.7 2023-11-18 13:30:00
1 2016-05-18 08:00:00 HR (Humedad Relativa) es igual a 100% y Ts <> Td 14.3 - 8.4 2023-11-18 13:30:00
1 2016-05-18 09:00:00 HR (Humedad Relativa) es igual a 100% y Ts <> Td 14.3 - 9.4 2023-11-18 13:30:00
1 2016-05-18 10:00:00 HR (Humedad Relativa) es igual a 100% y Ts <> Td 14.3 - 9.8 2023-11-18 13:30:00
1 2016-05-18 11:00:00 HR (Humedad Relativa) es igual a 100% y Ts <> Td 14.2 - 10.6 2023-11-18 13:30:00
1 2016-05-18 12:00:00 HR (Humedad Relativa) es igual a 100% y Ts <> Td 14.2 - 10.7 2023-11-18 13:30:00
1 2016-05-18 13:00:00 HR (Humedad Relativa) es igual a 100% y Ts <> Td 14.2 - 10.9 2023-11-18 13:30:00
1 2016-05-20 10:00:00 HR (Humedad Relativa) es igual a 100% y Ts <> Td 14.3 - 9.1 2023-11-18 13:30:00
1 2016-05-27 09:00:00 Ts debe ser mayor o igual a Td Ts=8.9 - Td=9.0 2023-11-18 13:31:00
1 2016-05-27 13:00:00 Ts debe ser mayor o igual a Td Ts=8.6 - Td=8.7 2023-11-18 13:31:00
1 2016-05-27 14:00:00 Ts debe ser mayor o igual a Td Ts=9.2 - Td=9.3 2023-11-18 13:31:00
1 2016-05-28 14:00:00 Ts debe ser mayor o igual a Td Ts=9.1 - Td=9.2 2023-11-18 13:31:00
1 2016-05-30 08:00:00 Ts debe ser mayor o igual a Td Ts=8.6 - Td=8.7 2023-11-18 13:31:00
1 2016-05-30 13:00:00 Ts debe ser mayor o igual a Td Ts=8.1 - Td=8.2 2023-11-18 13:31:00
1 2016-06-03 08:00:00 Ts debe ser mayor o igual a Td Ts=8.2 - Td=8.3 2023-11-18 13:31:00
1 2016-06-03 15:00:00 Ts debe ser mayor o igual a Td Ts=9.0 - Td=9.1 2023-11-18 13:31:00
1 2016-06-04 03:00:00 Ts debe ser mayor o igual a Td Ts=8.4 - Td=8.5 2023-11-18 13:31:00
1 2016-06-04 07:00:00 Ts debe ser mayor o igual a Td Ts=8.2 - Td=8.3 2023-11-18 13:31:00
1 2016-06-14 12:00:00 Ts debe ser mayor o igual a Td Ts=7.5 - Td=7.6 2023-11-18 13:31:00
1 2016-06-15 01:00:00 Ts debe ser mayor o igual a Td Ts=4.8 - Td=4.9 2023-11-18 13:31:00
1 2016-06-15 13:00:00 Ts debe ser mayor o igual a Td Ts=4.8 - Td=4.9 2023-11-18 13:31:00
1 2016-06-21 03:00:00 HR (Humedad Relativa) es igual a 100% y Ts <> Td 10.1 - 3.2 2023-11-18 13:31:00
1 2016-06-21 04:00:00 HR (Humedad Relativa) es igual a 100% y Ts <> Td 10.1 - 3.8 2023-11-18 13:31:00
1 2016-06-21 05:00:00 HR (Humedad Relativa) es igual a 100% y Ts <> Td 10.1 - 3.4 2023-11-18 13:31:00
1 2016-06-21 06:00:00 HR (Humedad Relativa) es igual a 100% y Ts <> Td 10.0 - 3.0 2023-11-18 13:31:00
1 2016-06-21 07:00:00 HR (Humedad Relativa) es igual a 100% y Ts <> Td 10.0 - 2.8 2023-11-18 13:31:00
1 2016-06-21 08:00:00 HR (Humedad Relativa) es igual a 100% y Ts <> Td 10.0 - 2.4 2023-11-18 13:31:00
1 2016-06-21 09:00:00 HR (Humedad Relativa) es igual a 100% y Ts <> Td 10.0 - 2.2 2023-11-18 13:31:00
1 2016-06-21 10:00:00 HR (Humedad Relativa) es igual a 100% y Ts <> Td 9.9 - 2.1 2023-11-18 13:31:00
1 2016-06-21 11:00:00 HR (Humedad Relativa) es igual a 100% y Ts <> Td 9.9 - 1.6 2023-11-18 13:31:00
1 2016-06-21 12:00:00 HR (Humedad Relativa) es igual a 100% y Ts <> Td 9.9 - 1.2 2023-11-18 13:31:00
1 2016-06-21 13:00:00 HR (Humedad Relativa) es igual a 100% y Ts <> Td 9.8 - 0.7 2023-11-18 13:31:00
1 2016-06-21 14:00:00 HR (Humedad Relativa) es igual a 100% y Ts <> Td 9.8 - 3.1 2023-11-18 13:31:00
1 2016-06-21 15:00:00 HR (Humedad Relativa) es igual a 100% y Ts <> Td 9.8 - 8.1 2023-11-18 13:31:00
1 2016-06-25 04:00:00 HR (Humedad Relativa) es igual a 100% y Ts <> Td 9.8 - 4.0 2023-11-18 13:31:00
1 2016-06-25 05:00:00 HR (Humedad Relativa) es igual a 100% y Ts <> Td 9.8 - 3.6 2023-11-18 13:31:00
1 2016-06-25 06:00:00 HR (Humedad Relativa) es igual a 100% y Ts <> Td 9.8 - 3.5 2023-11-18 13:31:00
1 2016-06-25 07:00:00 HR (Humedad Relativa) es igual a 100% y Ts <> Td 9.8 - 2.7 2023-11-18 13:31:00
1 2016-06-25 08:00:00 HR (Humedad Relativa) es igual a 100% y Ts <> Td 9.7 - 3.4 2023-11-18 13:31:00
1 2016-06-25 09:00:00 HR (Humedad Relativa) es igual a 100% y Ts <> Td 9.7 - 3.6 2023-11-18 13:31:00
1 2016-06-25 10:00:00 HR (Humedad Relativa) es igual a 100% y Ts <> Td 9.7 - 3.4 2023-11-18 13:31:00
1 2016-06-25 11:00:00 HR (Humedad Relativa) es igual a 100% y Ts <> Td 9.7 - 4.0 2023-11-18 13:31:00
1 2016-06-25 12:00:00 HR (Humedad Relativa) es igual a 100% y Ts <> Td 9.6 - 4.6 2023-11-18 13:31:00
1 2016-06-25 13:00:00 HR (Humedad Relativa) es igual a 100% y Ts <> Td 9.6 - 4.7 2023-11-18 13:31:00
1 2016-06-25 14:00:00 HR (Humedad Relativa) es igual a 100% y Ts <> Td 9.6 - 5.8 2023-11-18 13:31:00
1 2016-06-25 15:00:00 HR (Humedad Relativa) es igual a 100% y Ts <> Td 9.6 - 7.8 2023-11-18 13:31:00
1 2016-06-26 07:00:00 HR (Humedad Relativa) es igual a 100% y Ts <> Td 9.7 - 1.2 2023-11-18 13:31:00
1 2016-06-26 08:00:00 HR (Humedad Relativa) es igual a 100% y Ts <> Td 9.7 - 0.4 2023-11-18 13:31:00
1 2016-06-26 09:00:00 HR (Humedad Relativa) es igual a 100% y Ts <> Td 9.6 - 0.1 2023-11-18 13:31:00
1 2016-06-26 10:00:00 HR (Humedad Relativa) es igual a 100% y Ts <> Td 9.6 - 0.8 2023-11-18 13:31:00
1 2016-06-26 11:00:00 HR (Humedad Relativa) es igual a 100% y Ts <> Td 9.5 - 0.2 2023-11-18 13:31:00
1 2016-06-26 12:00:00 HR (Humedad Relativa) es igual a 100% y Ts <> Td 9.5 - 1.2 2023-11-18 13:31:00
1 2016-06-26 13:00:00 HR (Humedad Relativa) es igual a 100% y Ts <> Td 9.4 - 4.0 2023-11-18 13:31:00
1 2016-06-27 11:00:00 HR (Humedad Relativa) es igual a 100% y Ts <> Td 9.5 - 0.7 2023-11-18 13:31:00
1 2016-06-27 12:00:00 HR (Humedad Relativa) es igual a 100% y Ts <> Td 9.4 - 0.3 2023-11-18 13:31:00
1 2016-06-29 06:00:00 HR (Humedad Relativa) es igual a 100% y Ts <> Td 9.7 - 5.9 2023-11-18 13:31:00
1 2016-06-29 07:00:00 HR (Humedad Relativa) es igual a 100% y Ts <> Td 9.7 - 5.8 2023-11-18 13:31:00
1 2016-06-29 08:00:00 HR (Humedad Relativa) es igual a 100% y Ts <> Td 9.7 - 6.4 2023-11-18 13:31:00
1 2016-06-29 09:00:00 HR (Humedad Relativa) es igual a 100% y Ts <> Td 9.7 - 6.3 2023-11-18 13:31:00
1 2016-06-29 10:00:00 HR (Humedad Relativa) es igual a 100% y Ts <> Td 9.6 - 6.5 2023-11-18 13:31:00
1 2016-06-29 11:00:00 HR (Humedad Relativa) es igual a 100% y Ts <> Td 9.6 - 6.6 2023-11-18 13:31:00
1 2016-06-29 12:00:00 HR (Humedad Relativa) es igual a 100% y Ts <> Td 9.6 - 6.5 2023-11-18 13:31:00
1 2016-06-29 13:00:00 HR (Humedad Relativa) es igual a 100% y Ts <> Td 9.6 - 6.2 2023-11-18 13:31:00
1 2016-06-29 14:00:00 HR (Humedad Relativa) es igual a 100% y Ts <> Td 9.6 - 6.5 2023-11-18 13:32:00
1 2016-06-30 07:00:00 HR (Humedad Relativa) es igual a 100% y Ts <> Td 9.7 - 5.0 2023-11-18 13:32:00
1 2016-06-30 10:00:00 HR (Humedad Relativa) es igual a 100% y Ts <> Td 9.7 - 5.9 2023-11-18 13:32:00
1 2016-06-30 11:00:00 HR (Humedad Relativa) es igual a 100% y Ts <> Td 9.7 - 6.0 2023-11-18 13:32:00
1 2016-06-30 12:00:00 HR (Humedad Relativa) es igual a 100% y Ts <> Td 9.7 - 5.9 2023-11-18 13:32:00
1 2016-06-30 13:00:00 HR (Humedad Relativa) es igual a 100% y Ts <> Td 9.7 - 6.2 2023-11-18 13:32:00
1 2016-07-01 12:00:00 HR (Humedad Relativa) es igual a 100% y Ts <> Td 9.7 - 3.7 2023-11-18 13:32:00
1 2016-07-01 13:00:00 HR (Humedad Relativa) es igual a 100% y Ts <> Td 9.7 - 3.2 2023-11-18 13:32:00
1 2016-07-02 10:00:00 HR (Humedad Relativa) es igual a 100% y Ts <> Td 9.9 - 5.9 2023-11-18 13:32:00
1 2016-07-02 11:00:00 HR (Humedad Relativa) es igual a 100% y Ts <> Td 9.9 - 6.2 2023-11-18 13:32:00
1 2016-07-02 12:00:00 HR (Humedad Relativa) es igual a 100% y Ts <> Td 9.8 - 6.1 2023-11-18 13:32:00
1 2016-07-02 13:00:00 HR (Humedad Relativa) es igual a 100% y Ts <> Td 9.8 - 6.3 2023-11-18 13:32:00
1 2016-07-02 14:00:00 HR (Humedad Relativa) es igual a 100% y Ts <> Td 9.8 - 6.4 2023-11-18 13:32:00
1 2016-07-02 18:00:00 HR (Humedad Relativa) es igual a 100% y Ts <> Td 9.8 - 6.2 2023-11-18 13:32:00
1 2016-07-03 10:00:00 HR (Humedad Relativa) es igual a 100% y Ts <> Td 9.7 - 5.2 2023-11-18 13:32:00
1 2016-07-03 11:00:00 HR (Humedad Relativa) es igual a 100% y Ts <> Td 9.7 - 5.1 2023-11-18 13:32:00
1 2016-07-03 12:00:00 HR (Humedad Relativa) es igual a 100% y Ts <> Td 9.7 - 4.4 2023-11-18 13:32:00
1 2016-07-03 13:00:00 HR (Humedad Relativa) es igual a 100% y Ts <> Td 9.7 - 5.9 2023-11-18 13:32:00
1 2016-07-04 09:00:00 HR (Humedad Relativa) es igual a 100% y Ts <> Td 9.9 - 1.6 2023-11-18 13:32:00
1 2016-07-04 10:00:00 HR (Humedad Relativa) es igual a 100% y Ts <> Td 9.9 - 1.0 2023-11-18 13:32:00
1 2016-07-04 11:00:00 HR (Humedad Relativa) es igual a 100% y Ts <> Td 9.9 - 0.4 2023-11-18 13:32:00
1 2016-07-04 12:00:00 HR (Humedad Relativa) es igual a 100% y Ts <> Td 9.8 - -0.1 2023-11-18 13:32:00
1 2016-07-04 13:00:00 HR (Humedad Relativa) es igual a 100% y Ts <> Td 9.8 - 2.2 2023-11-18 13:32:00
1 2016-07-06 11:00:00 HR (Humedad Relativa) es igual a 100% y Ts <> Td 8.3 - -1.2 2023-11-18 13:32:00
1 2016-07-30 14:00:00 Ts debe ser mayor o igual a Td Ts=7.1 - Td=7.2 2023-11-18 13:32:00
1 2016-08-08 12:00:00 Ts debe ser mayor o igual a Td Ts=7.2 - Td=7.3 2023-11-18 13:32:00
1 2016-08-08 14:00:00 Ts debe ser mayor o igual a Td Ts=7.8 - Td=7.9 2023-11-18 13:32:00
1 2016-08-23 14:00:00 Ts debe ser mayor o igual a Td Ts=8.6 - Td=8.7 2023-11-18 13:33:00
1 2016-09-17 11:00:00 Ts debe ser mayor o igual a Td Ts=9.2 - Td=9.3 2023-11-18 13:33:00
1 2016-09-26 11:00:00 Ts debe ser mayor o igual a Td Ts=9.4 - Td=9.5 2023-11-18 13:33:00
1 2016-12-10 10:00:00 Ts debe ser mayor o igual a Td Ts=10.3 - Td=10.4 2023-11-18 13:35:00
1 2017-06-14 16:00:00 Ts debe ser mayor o igual a Td Ts=7.2 - Td=7.3 2023-11-18 13:39:00
1 2017-06-15 16:00:00 Ts debe ser mayor o igual a Td Ts=8.8 - Td=8.9 2023-11-18 13:39:00
1 2017-07-03 14:00:00 Ts debe ser mayor o igual a Td Ts=7.5 - Td=7.6 2023-11-18 13:40:00
1 2017-07-14 14:00:00 Ts debe ser mayor o igual a Td Ts=7.6 - Td=7.7 2023-11-18 13:40:00
1 2017-09-25 05:00:00 Ts debe ser mayor o igual a Td Ts=0.0 - Td=6.5 2023-11-18 13:41:00
1 2018-06-29 13:00:00 Ts debe ser mayor o igual a Td Ts=8.5 - Td=8.6 2023-11-18 13:47:00
1 2018-07-02 13:00:00 Ts debe ser mayor o igual a Td Ts=7.4 - Td=7.5 2023-11-18 13:47:00
1 2019-05-08 12:00:00 Ts debe ser mayor o igual a Td Ts=6.9 - Td=7.0 2023-11-18 13:54:00
1 2019-05-08 15:00:00 Ts debe ser mayor o igual a Td Ts=9.4 - Td=9.5 2023-11-18 13:54:00
1 2019-10-01 14:00:00 Ts debe ser mayor o igual a Td Ts=7.1 - Td=7.2 2023-11-08 08:37:00
1 2019-10-02 12:00:00 Ts debe ser mayor o igual a Td Ts=3.1 - Td=5.1 2023-11-08 08:37:00
1 2019-10-03 12:00:00 Ts debe ser mayor o igual a Td Ts=4.4 - Td=5.3 2023-11-08 08:37:00
1 2019-10-04 12:00:00 Ts debe ser mayor o igual a Td Ts=4.5 - Td=5.1 2023-11-08 08:37:00
1 2019-10-15 11:00:00 Ts debe ser mayor o igual a Td Ts=5.3 - Td=6.6 2023-11-08 08:37:00
1 2019-10-15 12:00:00 Ts debe ser mayor o igual a Td Ts=8.1 - Td=9.5 2023-11-08 08:37:00
1 2019-10-30 11:00:00 Ts debe ser mayor o igual a Td Ts=5.2 - Td=5.3 2023-11-08 08:37:00
1 2019-11-01 11:00:00 Ts debe ser mayor o igual a Td Ts=6.3 - Td=6.8 2023-11-08 08:37:00
1 2019-11-12 11:00:00 Ts debe ser mayor o igual a Td Ts=11.4 - Td=11.8 2023-11-08 08:37:00
1 2019-11-13 11:00:00 Ts debe ser mayor o igual a Td Ts=10.9 - Td=11.6 2023-11-08 08:37:00
Errores del Nivel 122
Nivel Fecha del Dato Descripción Información Error Fecha Ingreso
2 1991-06-14 00:00:00 Temperatura 22.6 del 13-06-1991 18:00, Mayor que la Máxima 22.2 14-06-1991 00:00 22.6 -- 22.2 2023-12-29 03:18:00
2 1997-09-21 00:00:00 Temperatura 19.0 del 20-09-1997 18:00, Mayor que la Máxima 14.9 21-09-1997 00:00 19.0 -- 14.9 2023-12-29 03:27:00
2 1999-03-25 00:00:00 Temperatura 19.0 del 25-03-1999 00:00, Mayor que la Máxima 18.8 25-03-1999 00:00 19.0 -- 18.8 2023-12-29 03:29:00
2 1999-04-16 00:00:00 Temperatura 18.9 del 16-04-1999 00:00, Mayor que la Máxima 15.8 16-04-1999 00:00 18.9 -- 15.8 2023-12-29 03:29:00
2 1999-05-08 00:00:00 Temperatura 23.9 del 07-05-1999 18:00, Mayor que la Máxima 23.8 08-05-1999 00:00 23.9 -- 23.8 2023-12-29 03:29:00
2 1999-10-26 00:00:00 Temperatura 23.6 del 25-10-1999 18:00, Mayor que la Máxima 23.0 26-10-1999 00:00 23.6 -- 23.0 2023-12-29 03:30:00
2 1999-12-19 00:00:00 Temperatura 26.4 del 18-12-1999 18:00, Mayor que la Máxima 26.0 19-12-1999 00:00 26.4 -- 26.0 2023-12-29 03:30:00
2 2003-02-20 00:00:00 Temperatura 21.4 del 19-02-2003 18:00, Mayor que la Máxima 20.4 20-02-2003 00:00 21.4 -- 20.4 2023-12-29 03:33:00
2 2003-06-18 00:00:00 Temperatura 14.0 del 18-06-2003 00:00, Mayor que la Máxima 11.0 18-06-2003 00:00 14.0 -- 11.0 2023-12-29 03:34:00
2 2003-06-22 00:00:00 Temperatura 19.1 del 21-06-2003 18:00, Mayor que la Máxima 13.4 22-06-2003 00:00 19.1 -- 13.4 2023-12-29 03:34:00
2 2003-09-07 00:00:00 Temperatura 17.4 del 06-09-2003 18:00, Mayor que la Máxima 12.0 07-09-2003 00:00 17.4 -- 12.0 2023-12-29 03:34:00
2 2003-11-19 00:00:00 Temperatura 25.0 del 18-11-2003 18:00, Mayor que la Máxima 20.5 19-11-2003 00:00 25.0 -- 20.5 2023-12-29 03:34:00
2 2004-03-25 00:00:00 Temperatura 28.7 del 24-03-2004 18:00, Mayor que la Máxima 28.0 25-03-2004 00:00 28.7 -- 28.0 2023-12-29 03:34:00
2 2004-04-19 00:00:00 Temperatura 18.3 del 18-04-2004 18:00, Mayor que la Máxima 13.0 19-04-2004 00:00 18.3 -- 13.0 2023-12-29 03:34:00
2 2004-10-22 00:00:00 Temperatura 25.2 del 21-10-2004 18:00, Mayor que la Máxima 18.6 22-10-2004 00:00 25.2 -- 18.6 2023-12-29 03:35:00
2 2004-12-04 00:00:00 Temperatura 24.3 del 03-12-2004 18:00, Mayor que la Máxima 24.0 04-12-2004 00:00 24.3 -- 24.0 2023-12-29 03:35:00
2 2009-01-28 00:00:00 Temperatura 32.3 del 27-01-2009 20:00, Mayor que la Máxima 31.6 28-01-2009 00:00 32.3 -- 31.6 2023-12-31 01:01:00
2 2009-01-29 00:00:00 Temperatura 33.9 del 28-01-2009 20:00, Mayor que la Máxima 32.2 29-01-2009 00:00 33.9 -- 32.2 2023-12-31 01:01:00
2 2009-01-30 00:00:00 Temperatura 28.9 del 29-01-2009 17:00, Mayor que la Máxima 28.4 30-01-2009 00:00 28.9 -- 28.4 2023-12-31 01:01:00
2 2009-01-31 00:00:00 Temperatura 30.4 del 30-01-2009 19:00, Mayor que la Máxima 30.0 31-01-2009 00:00 30.4 -- 30.0 2023-12-31 01:01:00
2 2009-02-01 00:00:00 Temperatura 33.0 del 31-01-2009 19:00, Mayor que la Máxima 31.4 01-02-2009 00:00 33.0 -- 31.4 2023-12-31 01:01:00
2 1997-09-04 12:00:00 Temperatura 8.9 del 04-09-1997 12:00, Menor que la Mínima 11.0 04-09-1997 12:00 8.9 -- 11.0 2023-12-29 03:27:00
2 1999-05-15 12:00:00 Temperatura 7.5 del 15-05-1999 12:00, Menor que la Mínima 8.1 15-05-1999 12:00 7.5 -- 8.1 2023-12-29 03:29:00
2 1999-07-01 12:00:00 Temperatura 8.0 del 01-07-1999 12:00, Menor que la Mínima 8.2 01-07-1999 12:00 8.0 -- 8.2 2023-12-29 03:29:00
2 1999-07-14 12:00:00 Temperatura -3.0 del 14-07-1999 12:00, Menor que la Mínima -2.8 14-07-1999 12:00 -3.0 -- -2.8 2023-12-29 03:30:00
2 1999-07-15 12:00:00 Temperatura -3.0 del 15-07-1999 12:00, Menor que la Mínima -2.8 15-07-1999 12:00 -3.0 -- -2.8 2023-12-29 03:30:00
2 1999-07-31 12:00:00 Temperatura -0.1 del 31-07-1999 12:00, Menor que la Mínima 0.0 31-07-1999 12:00 -0.1 -- 0.0 2023-12-29 03:30:00
2 2003-02-14 12:00:00 Temperatura 13.3 del 14-02-2003 12:00, Menor que la Mínima 14.0 14-02-2003 12:00 13.3 -- 14.0 2023-12-29 03:33:00
2 2003-02-15 12:00:00 Temperatura 11.3 del 15-02-2003 12:00, Menor que la Mínima 12.0 15-02-2003 12:00 11.3 -- 12.0 2023-12-29 03:33:00
2 2003-05-02 12:00:00 Temperatura 3.2 del 02-05-2003 12:00, Menor que la Mínima 3.3 02-05-2003 12:00 3.2 -- 3.3 2023-12-29 03:34:00
2 2003-06-12 12:00:00 Temperatura 7.0 del 12-06-2003 12:00, Menor que la Mínima 7.3 12-06-2003 12:00 7.0 -- 7.3 2023-12-29 03:34:00
2 2003-06-26 12:00:00 Temperatura 3.0 del 26-06-2003 12:00, Menor que la Mínima 3.1 26-06-2003 12:00 3.0 -- 3.1 2023-12-29 03:34:00
2 2003-07-05 12:00:00 Temperatura 9.2 del 05-07-2003 12:00, Menor que la Mínima 10.3 05-07-2003 12:00 9.2 -- 10.3 2023-12-29 03:34:00
2 2003-09-17 12:00:00 Temperatura 8.1 del 17-09-2003 12:00, Menor que la Mínima 9.3 17-09-2003 12:00 8.1 -- 9.3 2023-12-29 03:34:00
2 2004-03-19 12:00:00 Temperatura 11.5 del 19-03-2004 12:00, Menor que la Mínima 12.0 19-03-2004 12:00 11.5 -- 12.0 2023-12-29 03:34:00
2 2004-05-29 12:00:00 Temperatura 1.4 del 29-05-2004 12:00, Menor que la Mínima 2.2 29-05-2004 12:00 1.4 -- 2.2 2023-12-29 03:34:00
2 2004-07-10 12:00:00 Temperatura 2.4 del 10-07-2004 12:00, Menor que la Mínima 3.0 10-07-2004 12:00 2.4 -- 3.0 2023-12-29 03:35:00
2 2004-07-29 12:00:00 Temperatura 1.1 del 29-07-2004 12:00, Menor que la Mínima 1.2 29-07-2004 12:00 1.1 -- 1.2 2023-12-29 03:35:00
2 2009-01-27 12:00:00 Temperatura 11.5 del 27-01-2009 10:00, Menor que la Mínima 12.2 27-01-2009 12:00 11.5 -- 12.2 2023-12-31 01:01:00
2 2009-01-28 12:00:00 Temperatura 11.6 del 28-01-2009 09:00, Menor que la Mínima 12.0 28-01-2009 12:00 11.6 -- 12.0 2023-12-31 01:01:00
2 2009-01-31 12:00:00 Temperatura 15.1 del 31-01-2009 09:00, Menor que la Mínima 15.4 31-01-2009 12:00 15.1 -- 15.4 2023-12-31 01:01:00
Errores del Nivel 41
Informe generado el 23-02-2024 11:02
Requerimiento: RE6001